Boyd Deep Canyon Reserve, California Weather observations

Data are for 10 minute period ending at time listed.
 Day   Time   Solar   Ave.   Ave.  Ave.  Vector  Max.   Baro.   Total    
  of    of     Rad.   Air    Rel.  Wind   Wind   Wind  Press.  Precip.   
Year   Day            Temp.  Hum.  Speed  Dir.   Gust                    
2015   (PST)  Kw/m2    F      %     mph   deg.    mph    mb.     in.     
-------------------------------------------------------------------------
  31   10:00   0.17   61.9    49    2.4   172     4.8   978.0    0.00 
  31   10:10   0.22   62.3    48    3.7    25     8.7   978.1    0.00 
  31   10:20   0.17   62.1    49    3.3   347     6.3   978.2    0.00 
  31   10:30   0.18   61.9    49    2.1    30     5.4   978.3    0.00 
  31   10:40   0.20   62.2    48    1.8   336     6.4   978.3    0.00 
  31   10:50   0.27   62.5    49    2.9   227     5.2   978.3    0.00 
  31   11:00   0.35   63.0    47    2.2   231     6.1   978.3    0.00 
  31   11:10   0.31   63.1    46    2.3   198     5.7   978.3    0.00 
  31   11:20   0.28   63.0    45    3.6   232     8.1   978.3    0.00 
  31   11:30   0.22   63.0    45    4.7     0    14.0   978.2    0.00 
  31   11:40   0.23   63.0    44    2.2   339     5.0   978.1    0.00 
  31   11:50   0.24   63.3    45    3.5   335     8.0   978.0    0.00 
  31   12:00   0.24   63.1    44    5.1   345     9.3   978.0    0.00 
  31   12:10   0.23   63.1    44    4.5   342     9.6   977.9    0.00 
  31   12:20   0.29   63.4    44    4.3   327    10.2   977.9    0.00 
  31   12:30   0.25   63.5    44    6.3     1    11.2   977.8    0.00 
  31   12:40   0.26   63.6    43    3.4   350     8.6   977.7    0.00 
  31   12:50   0.19   64.0    42    1.9   282     5.1   977.6    0.00 
  31   13:00   0.38   64.4    42    4.8   244     9.5   977.5    0.00 
  31   13:10   0.23   63.9    42    3.2   260    10.0   977.5    0.00 
  31   13:20   0.24   64.6    41    2.4   231     8.9   977.3    0.00 
  31   13:30   0.30   64.5    41    5.5   360    13.9   977.3    0.00 
  31   13:40   0.32   64.5    41    8.0   355    17.2   977.3    0.00 
  31   13:50   0.45   64.8    41    8.9   356    15.2   977.2    0.00 
  31   14:00   0.29   64.2    42    5.4    14    15.1   977.2    0.00 
  31   14:10   0.32   64.3    42    8.0   359    15.3   977.3    0.00 
  31   14:20   0.31   64.4    42    4.1    34    11.5   977.4    0.00 
  31   14:30   0.31   64.5    41    4.7    21    11.5   977.4    0.00 
  31   14:40   0.27   64.7    42    7.0     9    10.6   977.3    0.00 
  31   14:50   0.10   64.1    42    5.2   354    10.8   977.4    0.00 
  31   15:00   0.23   64.4    42    5.8   357    10.2   977.3    0.00 
  31   15:10   0.13   64.7    42    4.2   354    10.5   977.4    0.00 
  31   15:20   0.12   64.2    42    5.9   359    16.7   977.5    0.00 
  31   15:30   0.13   64.4    42    2.6   350    11.1   977.4    0.00 
  31   15:40   0.09   64.2    42    3.0   347     7.7   977.4    0.00 
  31   15:50   0.06   64.3    42    2.3   224     7.6   977.5    0.00 
  31   16:00   0.05   64.3    42    3.0     6     6.4   977.5    0.00 
  31   16:10   0.04   64.4    42    2.1   345     5.9   977.6    0.00 
  31   16:20   0.04   64.4    42    2.3   230     5.0   977.7    0.00 
  31   16:30   0.03   64.4    42    1.6   245     4.6   977.8    0.00 
  31   16:40   0.03   64.4    42    2.3   199     4.9   977.9    0.00 
  31   16:50   0.01   64.3    43    3.0   172     5.1   977.9    0.00 
  31   17:00   0.01   64.1    44    2.6   190     4.9   978.0    0.00 
  31   17:10   0.00   64.1    44    3.3   217     5.6   978.1    0.00 
  31   17:20   0.00   64.0    44    4.6   210     7.5   978.1    0.00 
  31   17:30   0.00   64.0    44    4.4   199     7.4   978.1    0.00 
  31   17:40   0.00   63.9    44    4.4   205     7.0   978.3    0.00 
  31   17:50   0.00   64.0    43    5.1   188     7.9   978.3    0.00 
  31   18:00   0.00   63.8    44    6.0   196     8.6   978.4    0.00 
  31   18:10   0.00   63.2    45    5.0   200     8.1   978.6    0.00 
  31   18:20   0.00   63.4    45    7.0   202     9.8   978.6    0.00 
  31   18:30   0.00   63.4    44    8.7   199    12.3   978.7    0.00 
  31   18:40   0.00   63.3    44    9.2   200    12.3   978.7    0.00 
  31   18:50   0.00   63.0    45    8.7   205    12.3   978.7    0.00 
  31   19:00   0.00   62.7    46    7.7   213    11.5   978.8    0.00 
  31   19:10   0.00   62.8    45    9.1   199    14.2   978.9    0.00 
  31   19:20   0.00   62.4    46    7.4   191    10.3   979.1    0.00 
  31   19:30   0.00   62.8    44    8.0   192    12.9   979.3    0.00 
  31   19:40   0.00   62.9    44    5.8   207     9.0   979.4    0.00 
  31   19:50   0.00   62.2    46    7.5   197    10.6   979.6    0.00 
  31   20:00   0.00   62.4    44    7.7   195    10.7   979.7    0.00 
  31   20:10   0.00   62.6    44    4.9   212     7.1   980.0    0.00 
  31   20:20   0.00   62.6    44    6.2   200     9.9   980.0    0.00 
  31   20:30   0.00   62.6    44    7.8   199    11.8   980.0    0.00 
  31   20:40   0.00   62.7    43    8.5   192    11.5   980.1    0.00 
  31   20:50   0.00   62.5    43    6.6   191    10.3   980.1    0.00 
  31   21:00   0.00   62.6    43    8.5   188    12.0   980.1    0.00 
  31   21:10   0.00   62.1    44    8.0   187    11.3   980.3    0.00 
  31   21:20   0.00   62.0    44    8.0   190    10.6   980.3    0.00 
  31   21:30   0.00   62.0    44    8.1   194    11.3   980.4    0.00 
  31   21:40   0.00   62.2    43    9.6   195    12.7   980.5    0.00 
  31   21:50   0.00   62.4    42   11.0   198    16.2   980.5    0.00 
  31   22:00   0.00   62.7    41   11.4   200    14.8   980.6    0.00 
  31   22:10   0.00   62.4    42   10.9   199    15.9   980.7    0.00 
  31   22:20   0.00   62.2    42    9.9   203    15.9   980.8    0.00 
  31   22:30   0.00   62.2    42   11.0   200    14.9   980.7    0.00 
  31   22:40   0.00   62.7    41   11.0   201    13.8   980.7    0.00 
  31   22:50   0.00   62.7    41   10.1   209    15.6   980.7    0.00 
  31   23:00   0.00   62.3    42   10.7   198    13.7   980.9    0.00 
  31   23:10   0.00   62.1    42    9.5   192    13.4   981.0    0.00 
  31   23:20   0.00   62.2    42    9.5   192    13.1   981.0    0.00 
  31   23:30   0.00   62.4    41    9.3   190    11.8   981.1    0.00 
  31   23:40   0.00   62.7    41    9.7   183    12.9   981.0    0.00 
  31   23:50   0.00   62.1    42    9.8   184    13.4   980.9    0.00 
  32    0:00   0.00   61.9    42    9.2   189    13.1   980.7    0.00 
  32    0:10   0.00   61.8    43    9.0   192    12.0   980.6    0.00 
  32    0:20   0.00   61.8    42    9.1   202    15.3   980.7    0.00 
  32    0:30   0.00   61.5    43   10.4   209    14.2   980.6    0.00 
  32    0:40   0.00   61.7    42   10.0   203    15.3   980.6    0.00 
  32    0:50   0.00   61.5    42   10.4   200    15.1   980.6    0.00 
  32    1:00   0.00   61.6    42   10.5   195    15.6   980.7    0.00 
  32    1:10   0.00   61.7    42    9.5   182    14.8   980.9    0.00 
  32    1:20   0.00   61.6    42    8.8   180    14.0   981.0    0.00 
  32    1:30   0.00   61.5    42   10.9   176    14.9   981.0    0.00 
  32    1:40   0.00   61.7    42   10.3   183    13.4   981.0    0.00 
  32    1:50   0.00   61.1    43   10.0   185    13.4   981.1    0.00 
  32    2:00   0.00   61.4    42    9.9   188    14.3   981.2    0.00 
  32    2:10   0.00   61.7    41   10.8   188    14.6   981.2    0.00 
  32    2:20   0.00   61.9    41    9.2   188    12.9   981.1    0.00 
  32    2:30   0.00   61.8    41    9.2   182    13.7   981.0    0.00 
  32    2:40   0.00   61.8    41    9.5   194    14.2   981.0    0.00 
  32    2:50   0.00   62.2    39    9.9   203    15.1   981.1    0.00 
  32    3:00   0.00   62.3    39   10.6   202    15.3   981.2    0.00 
  32    3:10   0.00   62.4    39   10.4   202    15.3   981.2    0.00 
  32    3:20   0.00   62.2    39    8.9   192    14.1   981.2    0.00 
  32    3:30   0.00   61.9    40   10.0   195    14.0   981.1    0.00 
  32    3:40   0.00   62.1    39   10.4   188    15.8   981.1    0.00 
  32    3:50   0.00   62.9    36   14.3   197    18.3   981.0    0.00 
  32    4:00   0.00   63.1    36   13.8   196    17.5   981.2    0.00 
  32    4:10   0.00   62.9    36   13.8   196    17.2   981.3    0.00 
  32    4:20   0.00   62.9    36   13.9   202    18.4   981.4    0.00 
  32    4:30   0.00   63.2    35   14.4   200    17.5   981.4    0.00 
  32    4:40   0.00   62.8    36   11.6   211    17.1   981.5    0.00 
  32    4:50   0.00   62.4    36   11.7   222    18.2   981.6    0.00 
  32    5:00   0.00   62.3    35   12.4   217    18.1   981.6    0.00 
  32    5:10   0.00   62.0    36   10.4   207    15.1   981.7    0.00 
  32    5:20   0.00   61.9    35   12.7   219    19.8   981.8    0.00 
  32    5:30   0.00   61.8    35   11.2   205    16.7   982.0    0.00 
  32    5:40   0.00   61.7    34   11.8   207    17.7   982.0    0.00 
  32    5:50   0.00   61.5    34   11.6   208    18.7   982.2    0.00 
  32    6:00   0.00   61.4    34   11.5   210    16.7   982.3    0.00 
  32    6:10   0.00   61.7    33   12.6   212    19.7   982.3    0.00 
  32    6:20   0.00   62.0    32   12.5   214    20.4   982.3    0.00 
  32    6:30   0.00   61.7    32   12.1   207    18.0   982.5    0.00 
  32    6:40   0.00   61.8    32   11.6   208    19.3   982.7    0.00 
  32    6:50   0.00   61.9    31   11.5   211    15.6   982.9    0.00 
  32    7:00   0.01   62.0    30   11.4   207    16.1   983.0    0.00 
  32    7:10   0.01   62.0    30   12.0   221    17.8   983.2    0.00 
  32    7:20   0.01   62.3    29   14.7   213    21.1   983.3    0.00 
  32    7:30   0.01   62.4    29   13.2   217    18.6   983.5    0.00 
  32    7:40   0.08   62.6    29   11.0   203    15.5   983.7    0.00 
  32    7:50   0.16   62.9    29   12.3   204    16.5   983.9    0.00 
  32    8:00   0.19   63.1    29    9.5   204    14.0   984.1    0.00 
  32    8:10   0.22   63.3    29    8.8   194    12.2   984.2    0.00 
  32    8:20   0.26   63.8    28    8.6   183    11.1   984.4    0.00 
  32    8:30   0.29   64.5    28    9.5   178    12.0   984.4    0.00 
  32    8:40   0.32   65.1    28    7.9   186    10.4   984.6    0.00 
  32    8:50   0.35   66.1    27    7.0   181     9.1   984.7    0.00 
  32    9:00   0.38   67.1    26    6.1   178     8.4   984.8    0.00 
  32    9:10   0.41   67.6    26    6.9   183     9.2   984.7    0.00 
  32    9:20   0.44   68.1    26    5.3   182     7.0   984.6    0.00 
  32    9:30   0.47   69.2    24    4.4   191     6.5   984.5    0.00 
  32    9:40   0.50   70.3    23    3.6   189     5.2   984.5    0.00 
  32    9:50   0.52   70.9    22    2.4   184     4.1   984.5    0.00 

Return to Boyd Deep Canyon Reserve graphs page.


Western Regional Climate Center,wrcc@dri.edu